Time;durP1;ratioP1;P1;durP2;ratioP2;P2;SDS_P1;SDS_P2;PMS_P1;PMS_P2;Temp;Humidity;BMP_temperature;BMP_pressure;BME280_temperature;BME280_humidity;BME280_pressure;Samples;Min_cycle;Max_cycle;Signal;HPM_P1;HPM_P2
2021/01/13 00:01:29;;;;;;;0.00;0.00;;;0.90;44.70;;;;;;5034292;28;20457;-72
2021/01/13 00:03:55;;;;;;;0.00;0.00;;;0.80;99.90;;;;;;5033954;28;20794;-72
2021/01/13 00:06:21;;;;;;;0.00;0.00;;;0.80;99.90;;;;;;5033960;28;20461;-73
2021/01/13 00:08:47;;;;;;;0.00;0.00;;;0.80;99.90;;;;;;5034032;28;20411;-72
2021/01/13 00:11:14;;;;;;;0.00;0.00;;;0.80;99.90;;;;;;5033602;28;20748;-73
2021/01/13 00:13:41;;;;;;;0.00;0.00;;;0.80;94.60;;;;;;5033362;28;20815;-71
2021/01/13 00:16:08;;;;;;;0.00;0.00;;;0.80;94.40;;;;;;5033352;28;20415;-71
2021/01/13 00:18:34;;;;;;;0.00;0.00;;;0.80;88.60;;;;;;5034006;28;21020;-72
2021/01/13 00:21:00;;;;;;;0.00;0.00;;;0.70;99.90;;;;;;5034488;28;20422;-72
2021/01/13 00:23:26;;;;;;;0.00;0.00;;;0.80;99.90;;;;;;5033309;28;20887;-72
2021/01/13 00:25:52;;;;;;;0.00;0.00;;;0.70;99.90;;;;;;5033718;28;20419;-71
2021/01/13 00:28:18;;;;;;;0.00;0.00;;;0.70;99.90;;;;;;5033268;28;20411;-72
2021/01/13 00:30:45;;;;;;;0.00;0.00;;;0.70;99.90;;;;;;5033524;28;20411;-72
2021/01/13 00:33:11;;;;;;;0.00;0.00;;;0.70;99.90;;;;;;5033536;28;20414;-73
2021/01/13 00:35:37;;;;;;;0.00;0.00;;;0.70;99.90;;;;;;5033657;28;20433;-72
2021/01/13 00:38:04;;;;;;;0.00;0.00;;;0.60;99.90;;;;;;5033351;28;20481;-72
2021/01/13 00:40:30;;;;;;;0.00;0.00;;;0.60;99.90;;;;;;5033098;28;20911;-72
2021/01/13 00:42:56;;;;;;;0.00;0.00;;;0.60;99.90;;;;;;5033628;28;20430;-72
2021/01/13 00:45:22;;;;;;;0.00;0.00;;;0.60;99.90;;;;;;5033632;28;20419;-73
2021/01/13 00:47:50;;;;;;;0.00;0.00;;;0.60;99.90;;;;;;5033448;28;20838;-72
2021/01/13 00:50:17;;;;;;;0.00;0.00;;;0.70;99.90;;;;;;5033192;28;20411;-71
2021/01/13 00:52:47;;;;;;;0.00;0.00;;;0.70;99.90;;;;;;5032858;28;20411;-71
2021/01/13 00:55:13;;;;;;;0.00;0.00;;;0.70;99.90;;;;;;5033907;28;20597;-73
2021/01/13 00:57:39;;;;;;;0.00;0.00;;;0.60;99.90;;;;;;5033823;28;20433;-72
2021/01/13 01:00:06;;;;;;;0.00;0.00;;;0.60;99.90;;;;;;5033296;28;20431;-72
2021/01/13 01:02:32;;;;;;;0.00;0.00;;;0.70;99.90;;;;;;5033253;28;20419;-72
2021/01/13 01:05:00;;;;;;;0.00;0.00;;;0.70;99.90;;;;;;5032929;28;20411;-72
2021/01/13 01:07:26;;;;;;;0.00;0.00;;;0.70;99.90;;;;;;5033028;28;20820;-71
2021/01/13 01:09:52;;;;;;;0.00;0.00;;;0.70;99.90;;;;;;5032936;28;20475;-72
2021/01/13 01:12:18;;;;;;;0.00;0.00;;;0.60;99.90;;;;;;5032918;28;20484;-73
2021/01/13 01:14:44;;;;;;;0.00;0.00;;;0.60;99.90;;;;;;5032818;28;20419;-73
2021/01/13 01:17:10;;;;;;;0.00;0.00;;;0.50;99.90;;;;;;5033011;28;20418;-72
2021/01/13 01:19:37;;;;;;;0.00;0.00;;;0.60;1.00;;;;;;5032652;28;20431;-72
2021/01/13 01:22:05;;;;;;;0.00;0.00;;;0.60;1.00;;;;;;5032519;28;20422;-72
2021/01/13 01:24:31;;;;;;;0.00;0.00;;;0.60;1.00;;;;;;5032121;28;20427;-73
2021/01/13 01:26:57;;;;;;;0.00;0.00;;;0.60;1.00;;;;;;5032246;28;20427;-73
2021/01/13 01:29:23;;;;;;;0.00;0.00;;;0.60;1.00;;;;;;5032796;28;20441;-73
2021/01/13 01:31:51;;;;;;;0.00;0.00;;;0.60;1.00;;;;;;5032842;28;20419;-72
2021/01/13 01:34:17;;;;;;;0.00;0.00;;;0.60;1.00;;;;;;5032418;28;20906;-73
2021/01/13 01:36:43;;;;;;;0.00;0.00;;;0.60;1.00;;;;;;5032555;28;20498;-72
2021/01/13 01:39:10;;;;;;;0.00;0.00;;;0.60;1.00;;;;;;5031937;28;20434;-72
2021/01/13 01:41:36;;;;;;;0.00;0.00;;;0.60;1.00;;;;;;5032439;28;20415;-72
2021/01/13 01:44:02;;;;;;;0.00;0.00;;;0.60;1.00;;;;;;5032327;28;20419;-71
2021/01/13 01:46:30;;;;;;;0.00;0.00;;;0.60;1.00;;;;;;5032228;28;20525;-74
2021/01/13 01:48:59;;;;;;;0.00;0.00;;;0.60;1.00;;;;;;5031990;28;20473;-73
2021/01/13 01:51:26;;;;;;;0.00;0.00;;;0.60;1.00;;;;;;5031490;28;20473;-72
2021/01/13 01:54:12;;;;;;;0.00;0.00;;;0.60;1.00;;;;;;5031699;28;20418;-72
2021/01/13 01:56:39;;;;;;;0.00;0.00;;;0.60;1.00;;;;;;5031914;28;20472;-72
2021/01/13 01:59:07;;;;;;;0.00;0.00;;;0.60;1.00;;;;;;5034611;28;20426;-73
2021/01/13 02:01:35;;;;;;;0.00;0.00;;;0.60;1.00;;;;;;5033114;28;20430;-73
2021/01/13 02:04:07;;;;;;;0.00;0.00;;;0.60;1.00;;;;;;5033164;28;20415;-72
2021/01/13 02:06:43;;;;;;;0.00;0.00;;;0.60;1.00;;;;;;5031920;28;20419;-73
2021/01/13 02:09:09;;;;;;;0.00;0.00;;;0.70;1.00;;;;;;5031521;28;20411;-73
2021/01/13 02:11:39;;;;;;;0.00;0.00;;;0.70;1.00;;;;;;5031505;28;20423;-72
2021/01/13 02:14:05;;;;;;;0.00;0.00;;;0.70;1.00;;;;;;5031267;28;20427;-72
2021/01/13 02:16:34;;;;;;;0.00;0.00;;;0.70;1.00;;;;;;5031238;28;20415;-72
2021/01/13 02:19:04;;;;;;;0.00;0.00;;;0.70;1.00;;;;;;5032757;28;20496;-72
2021/01/13 02:21:32;;;;;;;0.00;0.00;;;0.70;1.00;;;;;;5032564;28;20423;-72
2021/01/13 02:24:48;;;;;;;0.00;0.00;;;0.70;1.00;;;;;;5032047;28;20783;-72
2021/01/13 02:27:53;;;;;;;0.00;0.00;;;0.70;1.00;;;;;;5032192;28;20415;-73
2021/01/13 02:30:25;;;;;;;0.00;0.00;;;0.70;1.00;;;;;;5031266;28;20429;-73
2021/01/13 02:32:55;;;;;;;0.00;0.00;;;0.70;1.00;;;;;;5030978;28;20421;-72
2021/01/13 02:35:25;;;;;;;0.00;0.00;;;0.70;1.00;;;;;;5031115;28;20414;-73
2021/01/13 02:38:03;;;;;;;0.00;0.00;;;0.70;99.90;;;;;;5031461;28;20415;-73
2021/01/13 02:40:31;;;;;;;0.00;0.00;;;0.60;99.90;;;;;;5031582;28;20480;-72
2021/01/13 02:43:08;;;;;;;0.00;0.00;;;0.60;1.00;;;;;;5031180;28;20472;-72
2021/01/13 02:45:37;;;;;;;0.00;0.00;;;0.70;99.90;;;;;;5030734;28;20507;-73
2021/01/13 02:48:10;;;;;;;0.00;0.00;;;0.70;99.90;;;;;;5031479;28;20818;-72
2021/01/13 02:50:41;;;;;;;0.00;0.00;;;0.70;1.00;;;;;;5031156;28;20430;-72
2021/01/13 02:53:46;;;;;;;0.00;0.00;;;0.70;1.00;;;;;;5031012;28;20892;-73
2021/01/13 02:56:40;;;;;;;0.00;0.00;;;0.70;1.00;;;;;;5031167;28;20417;-72
2021/01/13 02:59:12;;;;;;;0.00;0.00;;;0.70;1.00;;;;;;5031659;28;20415;-72
2021/01/13 03:01:43;;;;;;;0.00;0.00;;;0.70;1.00;;;;;;5031545;28;20407;-73
2021/01/13 03:04:11;;;;;;;0.00;0.00;;;0.80;1.00;;;;;;5031483;28;20422;-73
2021/01/13 03:06:41;;;;;;;0.00;0.00;;;0.80;1.00;;;;;;5031769;28;20493;-73
2021/01/13 03:09:09;;;;;;;0.00;0.00;;;0.80;1.00;;;;;;5031304;28;20419;-72
2021/01/13 03:11:37;;;;;;;0.00;0.00;;;0.80;1.00;;;;;;5031065;28;20415;-73
2021/01/13 03:14:16;;;;;;;0.00;0.00;;;0.90;1.00;;;;;;5030989;28;20414;-72
2021/01/13 03:16:54;;;;;;;0.00;0.00;;;0.90;1.00;;;;;;5030588;28;20795;-72
2021/01/13 03:19:27;;;;;;;0.00;0.00;;;0.80;99.90;;;;;;5031279;28;20949;-72
2021/01/13 03:21:59;;;;;;;0.00;0.00;;;0.80;99.90;;;;;;5031365;28;20426;-72
2021/01/13 03:24:39;;;;;;;0.00;0.00;;;0.80;99.90;;;;;;5030965;28;20423;-72
2021/01/13 03:27:07;;;;;;;0.00;0.00;;;0.80;99.90;;;;;;5030532;28;20415;-72
2021/01/13 03:29:37;;;;;;;0.00;0.00;;;0.80;99.90;;;;;;5030854;28;20427;-72
2021/01/13 03:32:09;;;;;;;0.00;0.00;;;0.90;99.90;;;;;;5030929;28;20845;-72
2021/01/13 03:34:51;;;;;;;0.00;0.00;;;0.90;99.90;;;;;;5030560;28;20464;-72
2021/01/13 03:37:23;;;;;;;0.00;0.00;;;0.90;99.90;;;;;;5030698;28;20784;-72
2021/01/13 03:39:52;;;;;;;0.00;0.00;;;0.90;99.90;;;;;;5030426;28;20419;-72
2021/01/13 03:42:20;;;;;;;0.00;0.00;;;0.90;99.90;;;;;;5030713;28;20880;-72
2021/01/13 03:44:48;;;;;;;0.00;0.00;;;0.90;99.90;;;;;;5030183;28;20415;-72
2021/01/13 03:47:47;;;;;;;0.00;0.00;;;1.00;99.90;;;;;;5030699;28;20468;-72
2021/01/13 03:50:20;;;;;;;0.00;0.00;;;1.00;99.90;;;;;;5030304;28;20427;-73
2021/01/13 03:52:56;;;;;;;0.00;0.00;;;1.00;99.90;;;;;;5034245;28;20421;-72
2021/01/13 03:55:23;;;;;;;0.00;0.00;;;1.00;99.90;;;;;;5034535;28;20414;-73
2021/01/13 03:58:14;;;;;;;0.00;0.00;;;1.10;99.90;;;;;;5034077;28;20419;-73
2021/01/13 04:00:54;;;;;;;0.00;0.00;;;1.00;99.90;;;;;;5033957;28;20468;-73
2021/01/13 04:03:26;;;;;;;0.00;0.00;;;1.00;95.10;;;;;;5033990;28;20419;-73
2021/01/13 04:06:07;;;;;;;0.00;0.00;;;0.90;47.00;;;;;;5034258;28;20822;-73
2021/01/13 04:08:36;;;;;;;0.00;0.00;;;0.80;99.90;;;;;;5034121;28;20411;-72
2021/01/13 04:11:04;;;;;;;0.00;0.00;;;0.80;99.90;;;;;;5033678;28;20431;-73
2021/01/13 04:13:40;;;;;;;0.00;0.00;;;0.70;99.90;;;;;;5033786;28;20426;-72
2021/01/13 04:16:09;;;;;;;0.00;0.00;;;0.80;99.90;;;;;;5034031;28;20426;-73
2021/01/13 04:18:36;;;;;;;0.00;0.00;;;0.80;99.90;;;;;;5033976;28;20887;-72
2021/01/13 04:21:04;;;;;;;0.00;0.00;;;0.80;99.90;;;;;;5033852;28;20422;-73
2021/01/13 04:23:30;;;;;;;0.00;0.00;;;0.80;99.90;;;;;;5033786;28;20411;-73
2021/01/13 04:25:59;;;;;;;0.00;0.00;;;0.80;99.90;;;;;;5033895;28;20416;-73
2021/01/13 04:28:26;;;;;;;0.00;0.00;;;0.80;99.90;;;;;;5033582;28;20915;-72
2021/01/13 04:30:53;;;;;;;0.00;0.00;;;0.70;99.90;;;;;;5033341;28;20427;-73
2021/01/13 04:33:21;;;;;;;0.00;0.00;;;0.80;99.90;;;;;;5033267;28;20423;-73
2021/01/13 04:35:47;;;;;;;0.00;0.00;;;0.80;99.90;;;;;;5033153;28;20957;-72
2021/01/13 04:38:20;;;;;;;0.00;0.00;;;0.80;99.90;;;;;;5033096;28;20803;-73
2021/01/13 04:40:49;;;;;;;0.00;0.00;;;0.80;99.90;;;;;;5033526;28;20415;-73
2021/01/13 04:43:22;;;;;;;0.00;0.00;;;0.80;99.90;;;;;;5032955;28;20446;-73
2021/01/13 04:45:49;;;;;;;0.00;0.00;;;0.80;99.90;;;;;;5033411;28;20422;-73
2021/01/13 04:48:17;;;;;;;0.00;0.00;;;0.80;99.90;;;;;;5033044;28;20895;-72
2021/01/13 04:50:45;;;;;;;0.00;0.00;;;0.80;99.90;;;;;;5032657;28;20434;-73
2021/01/13 04:53:12;;;;;;;0.00;0.00;;;0.80;1.00;;;;;;5032576;28;20923;-73
2021/01/13 04:55:50;;;;;;;0.00;0.00;;;0.90;1.00;;;;;;5033130;28;20419;-73
2021/01/13 04:58:52;;;;;;;0.00;0.00;;;0.90;1.00;;;;;;5032822;28;20419;-73
2021/01/13 05:01:55;;;;;;;0.00;0.00;;;0.90;99.90;;;;;;5032865;28;20472;-72
2021/01/13 05:05:03;;;;;;;0.00;0.00;;;0.90;1.00;;;;;;5032430;28;20411;-72
2021/01/13 05:07:35;;;;;;;0.00;0.00;;;0.90;1.00;;;;;;5024682;28;20499;-73
2021/01/13 05:10:13;;;;;;;0.00;0.00;;;0.80;99.90;;;;;;5032555;28;20476;-73
2021/01/13 05:12:48;;;;;;;0.00;0.00;;;0.90;1.00;;;;;;5032501;28;20418;-73
2021/01/13 05:15:19;;;;;;;0.00;0.00;;;0.90;1.00;;;;;;5029998;28;20477;-73
2021/01/13 05:18:06;;;;;;;0.00;0.00;;;0.90;1.00;;;;;;5032697;28;20410;-73
2021/01/13 05:20:34;;;;;;;0.00;0.00;;;0.90;1.00;;;;;;5032410;28;20407;-73
2021/01/13 05:23:02;;;;;;;0.00;0.00;;;0.90;1.00;;;;;;5032133;28;20468;-73
2021/01/13 05:25:42;;;;;;;0.00;0.00;;;0.90;24.70;;;;;;5041608;28;20430;-73
2021/01/13 05:28:14;;;;;;;0.00;0.00;;;1.00;23.80;;;;;;5052103;28;20509;-72
2021/01/13 05:30:42;;;;;;;0.00;0.00;;;1.00;92.30;;;;;;5051381;28;20425;-73
2021/01/13 05:33:13;;;;;;;0.00;0.00;;;1.00;95.70;;;;;;5051531;28;20413;-73
2021/01/13 05:35:42;;;;;;;0.00;0.00;;;1.00;99.90;;;;;;5052053;28;20418;-73
2021/01/13 05:38:15;;;;;;;0.00;0.00;;;1.10;99.90;;;;;;5051685;28;20413;-73
2021/01/13 05:40:46;;;;;;;0.00;0.00;;;1.10;99.90;;;;;;5051474;28;20459;-72
2021/01/13 05:43:13;;;;;;;0.00;0.00;;;1.10;99.90;;;;;;5051564;28;20417;-74
2021/01/13 05:45:40;;;;;;;0.00;0.00;;;1.10;99.90;;;;;;5052278;28;20413;-72
2021/01/13 05:48:15;;;;;;;0.00;0.00;;;1.20;99.90;;;;;;5053041;28;20414;-72
2021/01/13 05:50:42;;;;;;;0.00;0.00;;;1.20;99.90;;;;;;5052451;28;20432;-72
2021/01/13 05:53:10;;;;;;;0.00;0.00;;;1.30;99.90;;;;;;5052306;28;20417;-72
2021/01/13 05:55:36;;;;;;;0.00;0.00;;;1.40;99.90;;;;;;5053009;28;20428;-72
2021/01/13 05:58:03;;;;;;;0.00;0.00;;;1.40;99.90;;;;;;5052250;28;20417;-72
2021/01/13 06:00:31;;;;;;;0.00;0.00;;;1.40;99.90;;;;;;5052402;28;20459;-72
2021/01/13 06:02:59;;;;;;;0.00;0.00;;;1.40;99.90;;;;;;5052129;28;20417;-71
2021/01/13 06:05:27;;;;;;;0.00;0.00;;;1.40;99.90;;;;;;5052634;28;20417;-72
2021/01/13 06:07:55;;;;;;;0.00;0.00;;;1.40;99.90;;;;;;5052207;28;20422;-72
2021/01/13 06:10:27;;;;;;;0.00;0.00;;;1.50;99.90;;;;;;5052313;28;20805;-72
2021/01/13 06:12:57;;;;;;;0.00;0.00;;;1.50;99.90;;;;;;5051866;28;20421;-72
2021/01/13 06:15:24;;;;;;;0.00;0.00;;;1.60;99.90;;;;;;5052458;28;20410;-72
2021/01/13 06:17:52;;;;;;;0.00;0.00;;;1.60;99.90;;;;;;5052449;28;20496;-72
2021/01/13 06:20:23;;;;;;;0.00;0.00;;;1.60;99.90;;;;;;5051803;28;20829;-72
2021/01/13 06:22:51;;;;;;;0.00;0.00;;;1.60;99.90;;;;;;5030505;28;20490;-74
2021/01/13 06:25:25;;;;;;;0.00;0.00;;;1.60;99.90;;;;;;5011288;28;20424;-72
2021/01/13 06:28:34;;;;;;;0.00;0.00;;;1.60;99.90;;;;;;5011620;28;20421;-73
2021/01/13 08:36:00;;;;;;;0.00;0.00;;;1.70;99.90;;;;;;5032646;28;20389;-71
2021/01/13 09:25:03;;;;;;;0.00;0.00;;;2.00;1.00;;;;;;5011996;28;20423;-70
2021/01/13 10:08:17;;;;;;;0.00;0.00;;;2.60;99.90;;;;;;5011540;28;20369;-68
2021/01/13 11:18:16;;;;;;;0.00;0.00;;;2.90;99.90;;;;;;4897541;29;20495;-70
2021/01/13 15:30:36;;;;;;;0.00;0.00;;;3.90;1.00;;;;;;4973512;28;20547;-69
2021/01/13 16:00:43;;;;;;;0.00;0.00;;;3.50;99.90;;;;;;4877873;29;20404;-70
2021/01/13 16:50:54;;;;;;;0.00;0.00;;;3.60;99.90;;;;;;1473135;26;20926;-72
2021/01/13 16:53:21;;;;;;;0.00;0.00;;;3.60;99.90;;;;;;4993657;28;20541;-70
2021/01/13 16:55:55;;;;;;;0.00;0.00;;;3.30;99.90;;;;;;4993365;28;20439;-75
2021/01/13 16:59:02;;;;;;;0.00;0.00;;;3.20;99.90;;;;;;4993597;28;20434;-72
2021/01/13 17:01:30;;;;;;;0.00;0.00;;;3.10;1.00;;;;;;4993717;28;20418;-74
2021/01/13 17:03:58;;;;;;;0.00;0.00;;;3.00;72.00;;;;;;5002751;28;20436;-74
2021/01/13 17:06:27;;;;;;;0.00;0.00;;;3.00;99.90;;;;;;5012304;28;20524;-74
2021/01/13 17:09:00;;;;;;;0.00;0.00;;;3.00;99.90;;;;;;5012437;28;20428;-73
2021/01/13 17:11:34;;;;;;;0.00;0.00;;;3.10;99.90;;;;;;5011526;28;20450;-73
2021/01/13 17:14:05;;;;;;;0.00;0.00;;;3.20;99.90;;;;;;5011975;28;20421;-74
2021/01/13 17:23:28;;;;;;;0.00;0.00;;;3.20;51.10;;;;;;4949947;29;20501;-74
2021/01/13 17:26:10;;;;;;;0.00;0.00;;;3.20;99.90;;;;;;4951398;29;20430;-75
2021/01/13 17:28:47;;;;;;;0.00;0.00;;;3.20;68.00;;;;;;4987935;28;20543;-72
2021/01/13 17:31:15;;;;;;;0.00;0.00;;;3.20;99.90;;;;;;5010712;28;20555;-72
2021/01/13 17:33:45;;;;;;;0.00;0.00;;;3.20;99.90;;;;;;5010470;28;20944;-73
2021/01/13 17:39:24;;;;;;;0.00;0.00;;;3.20;99.90;;;;;;4881297;29;20425;-71
2021/01/13 18:01:16;;;;;;;0.00;0.00;;;3.30;99.90;;;;;;5002680;28;20441;-68
2021/01/13 18:03:43;;;;;;;0.00;0.00;;;3.30;99.90;;;;;;5011686;28;20849;-68
2021/01/13 18:06:14;;;;;;;0.00;0.00;;;3.40;99.90;;;;;;5011594;28;20416;-67
2021/01/13 18:08:40;;;;;;;0.00;0.00;;;3.40;99.90;;;;;;5011324;28;20964;-69
2021/01/13 18:11:06;;;;;;;0.00;0.00;;;3.50;99.90;;;;;;5010755;28;20986;-68
2021/01/13 18:13:32;;;;;;;0.00;0.00;;;3.40;99.90;;;;;;5010825;28;20468;-67
2021/01/13 18:16:00;;;;;;;0.00;0.00;;;3.30;99.90;;;;;;5011600;28;20421;-68
2021/01/13 18:18:28;;;;;;;0.00;0.00;;;3.30;99.90;;;;;;5011405;28;20511;-70
2021/01/13 18:20:54;;;;;;;0.00;0.00;;;3.40;99.90;;;;;;5010983;28;20459;-69
2021/01/13 18:23:21;;;;;;;0.00;0.00;;;3.20;99.90;;;;;;5011475;28;20413;-69
2021/01/13 18:25:49;;;;;;;0.00;0.00;;;3.20;99.90;;;;;;5012004;28;20488;-67
2021/01/13 18:28:16;;;;;;;0.00;0.00;;;3.20;99.90;;;;;;5011519;28;20492;-70
2021/01/13 18:30:42;;;;;;;0.00;0.00;;;3.10;99.90;;;;;;5010804;28;20467;-70
2021/01/13 18:33:09;;;;;;;0.00;0.00;;;3.10;99.90;;;;;;5011025;28;20483;-70
2021/01/13 18:35:37;;;;;;;0.00;0.00;;;3.20;99.90;;;;;;5011028;28;20889;-69
2021/01/13 18:38:05;;;;;;;0.00;0.00;;;3.10;99.90;;;;;;5011672;28;20508;-69
2021/01/13 18:40:33;;;;;;;0.00;0.00;;;3.00;99.90;;;;;;5011354;28;20793;-70
2021/01/13 18:43:02;;;;;;;0.00;0.00;;;3.10;99.90;;;;;;5010453;28;20412;-71
2021/01/13 18:45:29;;;;;;;0.00;0.00;;;3.00;99.90;;;;;;5010610;28;20424;-70
2021/01/13 18:47:56;;;;;;;0.00;0.00;;;3.00;99.90;;;;;;5011035;28;20886;-69
2021/01/13 18:50:23;;;;;;;0.00;0.00;;;3.00;99.90;;;;;;5010539;28;20896;-71
2021/01/13 18:52:50;;;;;;;0.00;0.00;;;2.90;99.90;;;;;;5010474;28;20404;-69
2021/01/13 18:55:17;;;;;;;0.00;0.00;;;3.00;99.90;;;;;;5010900;28;20832;-68
2021/01/13 18:57:43;;;;;;;0.00;0.00;;;3.10;99.90;;;;;;5011343;28;20840;-68
2021/01/13 19:00:10;;;;;;;0.00;0.00;;;3.10;99.90;;;;;;5006435;28;20422;-68
2021/01/13 19:02:37;;;;;;;0.00;0.00;;;3.10;99.90;;;;;;5003204;28;20467;-69
2021/01/13 19:05:03;;;;;;;0.00;0.00;;;3.10;99.90;;;;;;5011870;28;20424;-69
2021/01/13 19:07:30;;;;;;;0.00;0.00;;;3.00;99.90;;;;;;5011679;28;20425;-69
2021/01/13 19:09:57;;;;;;;0.00;0.00;;;3.00;99.90;;;;;;5011637;28;20421;-69
2021/01/13 19:12:23;;;;;;;0.00;0.00;;;3.00;99.90;;;;;;5010777;28;20436;-68
2021/01/13 19:14:49;;;;;;;0.00;0.00;;;3.00;99.90;;;;;;5010810;28;20913;-69
2021/01/13 19:17:15;;;;;;;0.00;0.00;;;3.00;99.90;;;;;;5010906;28;20417;-70
2021/01/13 19:19:42;;;;;;;0.00;0.00;;;2.90;99.90;;;;;;5011112;28;20904;-70
2021/01/13 19:22:08;;;;;;;0.00;0.00;;;3.00;99.90;;;;;;5012754;28;20423;-70
2021/01/13 19:24:35;;;;;;;0.00;0.00;;;3.00;1.00;;;;;;5015525;28;20420;-71
2021/01/13 19:27:03;;;;;;;0.00;0.00;;;3.00;1.00;;;;;;5018359;28;20409;-70
2021/01/13 19:29:29;;;;;;;0.00;0.00;;;3.10;99.90;;;;;;5016938;28;20416;-72
2021/01/13 19:31:58;;;;;;;0.00;0.00;;;3.20;99.90;;;;;;5014462;28;20432;-71
2021/01/13 19:34:25;;;;;;;0.00;0.00;;;3.20;99.90;;;;;;5015000;28;20421;-71
2021/01/13 19:36:52;;;;;;;0.00;0.00;;;3.20;99.90;;;;;;5015067;28;20443;-73
2021/01/13 19:39:19;;;;;;;0.00;0.00;;;3.30;99.90;;;;;;5016816;28;20417;-71
2021/01/13 19:41:45;;;;;;;0.00;0.00;;;3.30;99.90;;;;;;5013766;28;20424;-70
2021/01/13 19:44:13;;;;;;;0.00;0.00;;;3.20;99.90;;;;;;5013910;28;20432;-70
2021/01/13 19:46:40;;;;;;;0.00;0.00;;;3.30;99.90;;;;;;5013957;28;20801;-69
2021/01/13 19:49:07;;;;;;;0.00;0.00;;;3.30;99.90;;;;;;5014448;28;20423;-70
2021/01/13 19:51:34;;;;;;;0.00;0.00;;;3.20;99.90;;;;;;5013499;28;20494;-70
2021/01/13 19:54:00;;;;;;;0.00;0.00;;;3.30;99.90;;;;;;5013809;28;20508;-71
2021/01/13 19:56:26;;;;;;;0.00;0.00;;;3.30;95.10;;;;;;5014171;28;20425;-69
2021/01/13 19:58:52;;;;;;;0.00;0.00;;;3.40;36.30;;;;;;5016010;28;20803;-70
2021/01/13 20:01:19;;;;;;;0.00;0.00;;;3.40;1.00;;;;;;5013762;28;20474;-69
2021/01/13 20:03:47;;;;;;;0.00;0.00;;;3.40;1.00;;;;;;5013701;28;20419;-69
2021/01/13 20:06:14;;;;;;;0.00;0.00;;;3.40;8.00;;;;;;5013831;28;20427;-69
2021/01/13 20:08:40;;;;;;;0.00;0.00;;;3.40;1.00;;;;;;5013415;28;20416;-69
2021/01/13 20:11:06;;;;;;;0.00;0.00;;;3.50;1.00;;;;;;5013228;28;20494;-68
2021/01/13 20:13:34;;;;;;;0.00;0.00;;;3.40;1.00;;;;;;5013301;28;20421;-68
2021/01/13 20:16:00;;;;;;;0.00;0.00;;;3.50;1.00;;;;;;5013176;28;20905;-67
2021/01/13 20:18:29;;;;;;;0.00;0.00;;;3.50;1.00;;;;;;5013635;28;20447;-68
2021/01/13 20:20:55;;;;;;;0.00;0.00;;;3.60;1.00;;;;;;5012917;28;20505;-69
2021/01/13 20:23:21;;;;;;;0.00;0.00;;;3.60;1.00;;;;;;5013222;28;20416;-69
2021/01/13 20:25:47;;;;;;;0.00;0.00;;;3.50;1.00;;;;;;5013244;28;20770;-70
2021/01/13 20:28:13;;;;;;;0.00;0.00;;;3.60;1.00;;;;;;5013526;28;20424;-69
2021/01/13 20:30:39;;;;;;;0.00;0.00;;;3.50;99.90;;;;;;5013052;28;20428;-70
2021/01/13 20:33:06;;;;;;;0.00;0.00;;;3.60;99.90;;;;;;5012424;28;20528;-71
2021/01/13 20:35:33;;;;;;;0.00;0.00;;;3.60;99.90;;;;;;5022552;28;20420;-72
2021/01/13 20:37:59;;;;;;;0.00;0.00;;;3.50;1.00;;;;;;5015075;28;20451;-71
2021/01/13 20:40:27;;;;;;;0.00;0.00;;;3.50;1.00;;;;;;5014378;28;21019;-70
2021/01/13 20:43:32;;;;;;;0.00;0.00;;;3.50;1.00;;;;;;5012799;28;20470;-71
2021/01/13 20:46:02;;;;;;;0.00;0.00;;;3.40;99.90;;;;;;5012472;28;20425;-71
2021/01/13 20:48:33;;;;;;;0.00;0.00;;;3.40;99.90;;;;;;5013178;28;20483;-71
2021/01/13 20:51:00;;;;;;;0.00;0.00;;;3.40;99.90;;;;;;5012380;28;20436;-69
2021/01/13 20:53:26;;;;;;;0.00;0.00;;;3.50;99.90;;;;;;5012782;28;20463;-67
2021/01/13 20:55:56;;;;;;;0.00;0.00;;;3.50;94.30;;;;;;5012606;28;20416;-68
2021/01/13 20:58:22;;;;;;;0.00;0.00;;;3.50;21.90;;;;;;5012737;28;20431;-67
2021/01/13 21:00:48;;;;;;;0.00;0.00;;;3.50;1.00;;;;;;5012087;28;20488;-70
2021/01/13 21:03:14;;;;;;;0.00;0.00;;;3.50;1.00;;;;;;5012240;28;20417;-67
2021/01/13 21:05:40;;;;;;;0.00;0.00;;;3.50;1.00;;;;;;5010259;28;20417;-69
2021/01/13 21:08:07;;;;;;;0.00;0.00;;;3.50;1.00;;;;;;5012511;28;20829;-70
2021/01/13 21:10:33;;;;;;;0.00;0.00;;;3.60;1.00;;;;;;5011877;28;20431;-69
2021/01/13 21:13:00;;;;;;;0.00;0.00;;;3.70;1.00;;;;;;5012995;28;20413;-69
2021/01/13 21:15:26;;;;;;;0.00;0.00;;;3.60;1.00;;;;;;5012457;28;20432;-69
2021/01/13 21:17:53;;;;;;;0.00;0.00;;;3.50;1.00;;;;;;5012884;28;20428;-69
2021/01/13 21:20:19;;;;;;;0.00;0.00;;;3.60;1.00;;;;;;5012583;28;20477;-69
2021/01/13 21:22:45;;;;;;;0.00;0.00;;;3.60;1.00;;;;;;5013037;28;20479;-69
2021/01/13 21:25:12;;;;;;;0.00;0.00;;;3.60;1.00;;;;;;5012744;28;20792;-69
2021/01/13 21:27:39;;;;;;;0.00;0.00;;;3.60;1.00;;;;;;5012679;28;20413;-69
2021/01/13 21:30:07;;;;;;;0.00;0.00;;;3.60;1.00;;;;;;5012689;28;20439;-69
2021/01/13 21:32:33;;;;;;;0.00;0.00;;;3.60;1.00;;;;;;5012383;28;20428;-69
2021/01/13 21:34:59;;;;;;;0.00;0.00;;;3.60;1.00;;;;;;5012508;28;20821;-69
2021/01/13 21:37:28;;;;;;;0.00;0.00;;;3.60;1.00;;;;;;5012586;28;20926;-69
2021/01/13 21:39:54;;;;;;;0.00;0.00;;;3.60;1.00;;;;;;5012580;28;20421;-69
2021/01/13 21:42:21;;;;;;;0.00;0.00;;;3.60;1.00;;;;;;5012545;28;20477;-69
2021/01/13 21:44:47;;;;;;;0.00;0.00;;;3.60;1.00;;;;;;5011415;28;20416;-70
2021/01/13 21:47:13;;;;;;;0.00;0.00;;;3.60;99.90;;;;;;5012413;28;20452;-69
2021/01/13 21:49:39;;;;;;;0.00;0.00;;;3.50;99.90;;;;;;5012396;28;20424;-69
2021/01/13 21:52:05;;;;;;;0.00;0.00;;;3.60;99.90;;;;;;5012339;28;20428;-69
2021/01/13 21:54:34;;;;;;;0.00;0.00;;;3.60;99.90;;;;;;5012050;28;20435;-69
2021/01/13 21:57:01;;;;;;;0.00;0.00;;;3.60;99.90;;;;;;5012076;28;20452;-69
2021/01/13 21:59:28;;;;;;;0.00;0.00;;;3.50;99.90;;;;;;5012131;28;20421;-70
2021/01/13 22:01:54;;;;;;;0.00;0.00;;;3.60;99.90;;;;;;5011816;28;20424;-69
2021/01/13 22:04:23;;;;;;;0.00;0.00;;;3.60;99.90;;;;;;5012108;28;20833;-69
2021/01/13 22:06:49;;;;;;;0.00;0.00;;;3.50;99.40;;;;;;5012328;28;20860;-70
2021/01/13 22:09:15;;;;;;;0.00;0.00;;;3.50;99.90;;;;;;5012737;28;20423;-70
2021/01/13 22:11:43;;;;;;;0.00;0.00;;;3.40;1.00;;;;;;5012442;28;20428;-70
2021/01/13 22:14:09;;;;;;;0.00;0.00;;;3.40;94.30;;;;;;5011739;28;20412;-70
2021/01/13 22:16:37;;;;;;;0.00;0.00;;;3.40;53.10;;;;;;5011773;28;20416;-70
2021/01/13 22:19:04;;;;;;;0.00;0.00;;;3.50;88.60;;;;;;5012237;28;20471;-69
2021/01/13 22:21:30;;;;;;;0.00;0.00;;;3.40;1.00;;;;;;5012715;28;20423;-69
2021/01/13 22:23:56;;;;;;;0.00;0.00;;;3.40;1.00;;;;;;5012103;28;20416;-69
2021/01/13 22:26:24;;;;;;;0.00;0.00;;;3.30;1.00;;;;;;5012103;28;20420;-69
2021/01/13 22:28:51;;;;;;;0.00;0.00;;;3.30;1.00;;;;;;5012991;28;20413;-70
2021/01/13 22:31:19;;;;;;;0.00;0.00;;;3.30;1.00;;;;;;5012676;28;20471;-70
2021/01/13 22:33:47;;;;;;;0.00;0.00;;;3.40;99.90;;;;;;5012970;28;20475;-70
2021/01/13 22:36:14;;;;;;;0.00;0.00;;;3.40;99.90;;;;;;5012472;28;20417;-69
2021/01/13 22:38:41;;;;;;;0.00;0.00;;;3.40;10.50;;;;;;5011792;28;20420;-69
2021/01/13 22:41:07;;;;;;;0.00;0.00;;;3.40;7.40;;;;;;5011633;28;20416;-69
2021/01/13 22:43:34;;;;;;;0.00;0.00;;;3.30;1.00;;;;;;5011315;28;20408;-69
2021/01/13 22:46:01;;;;;;;0.00;0.00;;;3.30;1.00;;;;;;5011598;28;20419;-69
2021/01/13 22:48:27;;;;;;;0.00;0.00;;;3.30;1.00;;;;;;5011396;28;20416;-69
2021/01/13 22:50:54;;;;;;;0.00;0.00;;;3.30;99.90;;;;;;5011260;28;20436;-70
2021/01/13 22:53:20;;;;;;;0.00;0.00;;;3.30;82.90;;;;;;5011230;28;20416;-71
2021/01/13 22:55:51;;;;;;;0.00;0.00;;;3.30;1.00;;;;;;5010931;28;20475;-70
2021/01/13 22:58:17;;;;;;;0.00;0.00;;;3.30;1.00;;;;;;5011464;28;20419;-70
2021/01/13 23:00:43;;;;;;;0.00;0.00;;;3.30;50.00;;;;;;5011115;28;20429;-69
2021/01/13 23:03:10;;;;;;;0.00;0.00;;;3.30;12.40;;;;;;5011402;28;20511;-69
2021/01/13 23:05:37;;;;;;;0.00;0.00;;;3.20;1.00;;;;;;5010741;28;20463;-70
2021/01/13 23:08:04;;;;;;;0.00;0.00;;;3.10;1.00;;;;;;5011198;28;20885;-69
2021/01/13 23:10:31;;;;;;;0.00;0.00;;;3.20;1.00;;;;;;5010916;28;20424;-70
2021/01/13 23:12:57;;;;;;;0.00;0.00;;;3.10;99.90;;;;;;5011420;28;20797;-69
2021/01/13 23:15:23;;;;;;;0.00;0.00;;;3.00;99.90;;;;;;5011267;28;20428;-70
2021/01/13 23:17:49;;;;;;;0.00;0.00;;;2.90;99.90;;;;;;5011229;28;20809;-69
2021/01/13 23:20:15;;;;;;;0.00;0.00;;;3.00;99.90;;;;;;5011063;28;20417;-69
2021/01/13 23:22:42;;;;;;;0.00;0.00;;;2.90;99.90;;;;;;5010730;28;20463;-69
2021/01/13 23:25:11;;;;;;;0.00;0.00;;;2.90;80.20;;;;;;5011106;28;20420;-70
2021/01/13 23:27:38;;;;;;;0.00;0.00;;;2.90;88.40;;;;;;5011145;28;20424;-69
2021/01/13 23:30:10;;;;;;;0.00;0.00;;;2.90;99.90;;;;;;5011735;28;20417;-69
2021/01/13 23:32:37;;;;;;;0.00;0.00;;;2.90;99.90;;;;;;5011692;28;20440;-70
2021/01/13 23:35:05;;;;;;;0.00;0.00;;;2.90;99.90;;;;;;5011747;28;20431;-70
2021/01/13 23:37:31;;;;;;;0.00;0.00;;;2.80;36.90;;;;;;5012559;28;20413;-70
2021/01/13 23:39:57;;;;;;;0.00;0.00;;;2.70;11.00;;;;;;5013171;28;20789;-70
2021/01/13 23:42:24;;;;;;;0.00;0.00;;;2.60;13.10;;;;;;5013465;28;20417;-70
2021/01/13 23:44:50;;;;;;;0.00;0.00;;;2.60;22.80;;;;;;5010774;28;20427;-69
2021/01/13 23:47:16;;;;;;;0.00;0.00;;;2.60;18.60;;;;;;5011721;28;20885;-70